Terminal Aerodrome Forecast
Issued by NWS

Home | Current Version | Previous Version | Text Only | Print | Product List | Glossary On
Versions: 1 2 3 4 5 6 7 8 9 10 11 12 13 14 15
442
FTUS43 KJKL 221903 AAA
TAFSME
TAF AMD
KSME 221903Z 2219/2318 21009G17KT P6SM SCT050 BKN250
     FM230700 VRB05KT P6SM BKN150
     FM231000 16005KT 6SM -RA BR SCT015 OVC040=

USA.gov is the U.S. government's official web portal to all federal, state and local government web resources and services.